Pagina principală
METAR-TAF:

METAR-TAF

Aeroporturi :

NWS Office

Majuro, Insulele Marshall

Latitudine: 07-05N, longitudine: 171-12E, elevație: 4 m

Observații meteo curente

Raportul a fost făcut în urmă cu 14 de minute, la 02:52 UTC
Vânt 6 kt de la Nord-est
Temperatură 29°C
Umiditate 79%
Presiune 1007 hPa
Vizibilitate: 24.1 km
Nori puțini la o înălțime de 1400 picior, Cumulus congestus.
Nori împrăștiați la o înălțime de 5000 picior
Nori fragmentați la o înălțime de 12000 picior
Total acoperit la o înălțime de 30000 picior

METAR: PKMR 020252Z 04006KT 15SM FEW014TCU SCT050 BKN120 OVC300 29/25 A2974 RMK TCU N AND E SLP073 60006 8/878 T02940246 57027

Ora: 15:06 (03:06 UTC)


TAF: lipsă

Observații și prognoze meteo pentru peste 4.000 de aeroporturi (rapoarte METAR și TAF).

Stațiile disponibile sunt reprezentate pe hartă prin puncte galbene și roșii.

Țineți indicatorul mouse-ului pe punctul dorit pentru a vedea denumirea stației.

Apoi, faceți clic pentru a vedea observațiile și prognozele meteorologice.

Pentru a schimba harta: Pentru mărire, faceți clic pe butoanele verzi cu cruce neagră; pentru micșorare, pe butonul verde cu o liniuță; pentru hărți învecinate, pe săgețile verzi.


METAR-TAF: